VIP Ground Handling & Aviation Services

 

 
Airport

KALAMATA (KLX)

Ground Handling Services – KLX/LGKL

VIP Ground Handling

State Ground Handling

Military Ground Handling

Slot & PPR Coordination

Fuel Arrangements

Crew Accommodation Arrangements

Crew Transportation

Customs & Immigration Assistance

Executive Terminal Services

Crew Lounge

Flight Planning, Weather Briefing and NOTAMs

Catering Arrangements

Security Services

Aircraft Maintenance

Airport Customs & Immigration

Concierge Services

VIP Meet & Greet

Helicopter Transfers

Chauffeur Services

Aircraft Charter

Yacht Charter

Hire & Rental

Entertainment & Hospitality

Health & Beauty

Delivery Services

Conference & Meeting rooms

Kalamata International Airport ``Captain Vassilis Constantakopoulos``, Kalamata Greek National Road 82

+30 210 35 33 331 (24/7)

+30 694 6200 300 (24/7)

greece@alphajetservices.com

Kalamata Airport
Airport Type
• Civil
Operating Hours
•Check NOTAMS / Contact Us
Fuel Available
•JET A1
Fire Category
•7
Approaches
•ILS VOR / DME
Available data for LGKL from the past 2 hours
KALAMATA (HEL-AF
Metar
LGKL 260950Z 18006KT 9999 FEW025 33/12 Q1012

09:50 UTC

Wind: 180° 6kt

Visibility: 9999 m

Sky: FEW 2500 ft

Temp: 33 deg C / 91.4 deg F

Dewpoint: 12 deg C / 53.6 deg F

Pressure: 1012 hPa

TAF
TAF LGKL 260800Z 2609/2618 34006KT 9999 FEW025 TEMPO 2609/2615 16008KT 9999 FEW025 SCT080